createdAt,value
2018-12-29T00:01:55.141Z,22.83
2018-12-29T00:04:21.103Z,20.67
2018-12-29T00:06:47.071Z,22.20
2018-12-29T00:09:13.024Z,18.73
2018-12-29T00:11:39.008Z,24.67
2018-12-29T00:14:04.978Z,25.23
2018-12-29T00:16:30.926Z,23.53
2018-12-29T00:18:56.934Z,21.80
2018-12-29T00:21:22.875Z,22.07
2018-12-29T00:23:48.876Z,22.20
2018-12-29T00:26:14.818Z,22.63
2018-12-29T00:28:40.815Z,22.13
2018-12-29T00:31:07.506Z,30.87
2018-12-29T00:33:33.499Z,20.77
2018-12-29T00:36:00.194Z,24.40
2018-12-29T00:38:26.175Z,22.13
2018-12-29T00:40:52.135Z,25.33
2018-12-29T00:43:18.100Z,18.27
2018-12-29T00:45:45.563Z,19.13
2018-12-29T00:48:10.830Z,17.97
2018-12-29T00:50:36.808Z,23.80
2018-12-29T00:53:02.771Z,21.17
2018-12-29T00:55:28.758Z,24.30
2018-12-29T00:57:54.773Z,18.77
2018-12-29T01:00:21.498Z,22.47
2018-12-29T01:02:48.181Z,21.27
2018-12-29T01:05:14.131Z,25.57
2018-12-29T01:07:40.116Z,21.37
2018-12-29T01:10:06.091Z,22.13
2018-12-29T01:12:32.062Z,19.80
2018-12-29T01:14:58.058Z,21.20
2018-12-29T01:17:24.783Z,20.43
2018-12-29T01:19:50.754Z,23.20
2018-12-29T01:22:16.727Z,22.50
2018-12-29T01:24:42.671Z,25.57
2018-12-29T01:27:09.392Z,17.93
2018-12-29T01:29:36.123Z,19.03
2018-12-29T01:32:02.062Z,22.73
2018-12-29T01:34:28.758Z,23.13
2018-12-29T01:36:54.720Z,23.33
2018-12-29T01:39:21.452Z,29.40
2018-12-29T01:41:54.483Z,23.97
2018-12-29T01:44:21.262Z,23.87
2018-12-29T01:46:47.284Z,22.20
2018-12-29T01:49:13.276Z,23.17
2018-12-29T01:51:39.286Z,22.80
2018-12-29T01:54:05.350Z,25.73
2018-12-29T01:56:31.332Z,21.50
2018-12-29T01:58:57.298Z,23.63
2018-12-29T02:01:23.276Z,22.47
2018-12-29T02:03:49.228Z,25.60
2018-12-29T02:06:16.003Z,23.93
2018-12-29T02:08:41.952Z,26.10
2018-12-29T02:11:08.675Z,22.47
2018-12-29T02:13:34.619Z,27.60
2018-12-29T02:16:00.593Z,20.57
2018-12-29T02:18:26.564Z,21.43
2018-12-29T02:20:52.570Z,26.30
2018-12-29T02:23:19.268Z,26.67
2018-12-29T02:25:45.233Z,25.37
2018-12-29T02:28:11.958Z,22.73
2018-12-29T02:30:37.914Z,25.77
2018-12-29T02:33:03.934Z,24.77
2018-12-29T02:35:29.904Z,24.23
2018-12-29T02:37:55.877Z,25.43
2018-12-29T02:40:22.562Z,23.73
2018-12-29T02:42:48.631Z,23.03
2018-12-29T02:45:15.333Z,25.17
2018-12-29T02:47:41.319Z,24.87
2018-12-29T02:50:07.309Z,25.30
2018-12-29T02:52:34.014Z,31.30
2018-12-29T02:55:00.033Z,21.33
2018-12-29T02:57:26.033Z,27.90
2018-12-29T02:59:52.006Z,26.23
2018-12-29T03:02:17.959Z,27.47
2018-12-29T03:04:44.668Z,23.50
2018-12-29T03:07:10.621Z,26.37
2018-12-29T03:09:37.330Z,27.67
2018-12-29T03:12:03.280Z,23.90
2018-12-29T03:14:29.232Z,30.13
2018-12-29T03:16:55.225Z,23.93
2018-12-29T03:19:21.912Z,24.87
2018-12-29T03:21:47.887Z,25.10
2018-12-29T03:24:14.579Z,24.63
2018-12-29T03:26:40.572Z,25.10
2018-12-29T03:29:06.523Z,26.30
2018-12-29T03:31:32.573Z,29.03
2018-12-29T03:33:58.526Z,24.27
2018-12-29T03:36:24.488Z,25.93
2018-12-29T03:38:50.455Z,24.17
2018-12-29T03:41:17.161Z,21.20
2018-12-29T03:43:43.138Z,22.33
2018-12-29T03:46:09.104Z,21.97
2018-12-29T03:48:35.093Z,27.90
2018-12-29T03:51:01.048Z,25.77
2018-12-29T03:53:27.024Z,24.27
2018-12-29T03:55:53.713Z,23.47
2018-12-29T03:58:19.705Z,27.73
2018-12-29T04:00:45.653Z,21.80
2018-12-29T04:03:11.604Z,24.77
2018-12-29T04:05:37.567Z,27.57
2018-12-29T04:08:03.517Z,22.17
2018-12-29T04:10:29.491Z,23.03
2018-12-29T04:12:56.190Z,25.33
2018-12-29T04:15:22.188Z,22.73
2018-12-29T04:17:48.150Z,26.00
2018-12-29T04:20:14.146Z,22.17
2018-12-29T04:22:40.101Z,22.77
2018-12-29T04:25:06.128Z,29.27
2018-12-29T04:27:32.819Z,22.83
2018-12-29T04:29:58.817Z,22.90
2018-12-29T04:32:25.052Z,26.07
2018-12-29T04:34:51.019Z,27.17
2018-12-29T04:37:17.015Z,26.87
2018-12-29T04:39:42.983Z,20.53
2018-12-29T04:42:08.980Z,27.00
2018-12-29T04:44:34.932Z,28.93
2018-12-29T04:47:00.921Z,26.70
2018-12-29T04:49:26.888Z,27.97
2018-12-29T04:51:53.591Z,25.33
2018-12-29T04:54:19.569Z,25.33
2018-12-29T04:56:45.512Z,32.17
2018-12-29T04:59:11.491Z,27.20
2018-12-29T05:01:38.198Z,27.23
2018-12-29T05:04:04.191Z,24.40
2018-12-29T05:06:30.144Z,33.17
2018-12-29T05:08:56.142Z,24.53
2018-12-29T05:11:22.107Z,24.63
2018-12-29T05:13:48.082Z,22.37
2018-12-29T05:16:14.108Z,28.50
2018-12-29T05:18:40.055Z,27.93
2018-12-29T05:21:06.034Z,22.40
2018-12-29T05:23:31.975Z,26.93
2018-12-29T05:25:57.967Z,19.73
2018-12-29T05:28:24.660Z,22.23
2018-12-29T05:30:50.631Z,30.17
2018-12-29T05:33:16.622Z,32.93
2018-12-29T05:35:42.612Z,33.83
2018-12-29T05:38:08.585Z,26.87
2018-12-29T05:40:35.314Z,27.37
2018-12-29T05:43:01.305Z,29.50
2018-12-29T05:45:27.279Z,26.80
2018-12-29T05:47:53.999Z,22.07
2018-12-29T05:50:20.715Z,28.07
2018-12-29T05:52:46.696Z,29.23
2018-12-29T05:55:12.682Z,25.53
2018-12-29T05:57:38.672Z,24.80
2018-12-29T06:00:04.630Z,31.53
2018-12-29T06:02:30.586Z,29.77
2018-12-29T06:04:56.564Z,25.60
2018-12-29T06:07:22.517Z,31.97
2018-12-29T06:09:49.236Z,24.73
2018-12-29T06:12:15.184Z,29.33
2018-12-29T06:14:41.917Z,33.03
2018-12-29T06:17:07.845Z,33.37
2018-12-29T06:19:33.819Z,28.27
2018-12-29T06:21:59.803Z,31.23
2018-12-29T06:24:26.485Z,27.63
2018-12-29T06:26:53.268Z,23.87
2018-12-29T06:29:19.963Z,18.30
2018-12-29T06:31:45.950Z,28.40
2018-12-29T06:34:11.883Z,28.20
2018-12-29T06:36:37.878Z,34.43
2018-12-29T06:39:04.558Z,22.30
2018-12-29T06:41:30.536Z,28.57
2018-12-29T06:43:57.259Z,27.23
2018-12-29T06:46:23.197Z,26.97
2018-12-29T06:48:49.175Z,31.00
2018-12-29T06:51:15.122Z,26.57
2018-12-29T06:53:41.123Z,29.17
2018-12-29T06:56:07.100Z,32.67
2018-12-29T06:58:33.087Z,35.33
2018-12-29T07:00:59.055Z,36.93
2018-12-29T07:03:25.125Z,33.70
2018-12-29T07:05:51.097Z,32.13
2018-12-29T07:08:17.082Z,32.60
2018-12-29T07:10:43.073Z,33.10
2018-12-29T07:13:09.034Z,29.10
2018-12-29T07:15:35.021Z,32.73
2018-12-29T07:18:01.001Z,29.73
2018-12-29T07:20:27.727Z,32.10
2018-12-29T07:22:54.425Z,31.50
2018-12-29T07:25:20.431Z,28.77
2018-12-29T07:27:46.396Z,28.27
2018-12-29T07:30:12.338Z,27.73
2018-12-29T07:32:39.065Z,31.83
2018-12-29T07:35:05.769Z,28.67
2018-12-29T07:37:31.758Z,29.40
2018-12-29T07:39:57.735Z,36.17
2018-12-29T07:42:23.726Z,33.97
2018-12-29T07:44:50.435Z,37.67
2018-12-29T07:47:17.156Z,33.00
2018-12-29T07:49:43.136Z,26.40
2018-12-29T07:52:09.116Z,32.77
2018-12-29T07:54:35.854Z,37.83
2018-12-29T07:57:01.842Z,45.83
2018-12-29T07:59:27.811Z,38.23
2018-12-29T08:01:53.862Z,32.50
2018-12-29T08:04:19.886Z,32.23
2018-12-29T08:06:45.841Z,36.63
2018-12-29T08:09:11.840Z,32.93
2018-12-29T08:11:37.799Z,35.90
2018-12-29T08:14:03.752Z,43.63
2018-12-29T08:16:29.753Z,38.17
2018-12-29T08:18:55.686Z,41.10
2018-12-29T08:21:22.422Z,34.27
2018-12-29T08:23:49.096Z,38.47
2018-12-29T08:26:15.081Z,35.07
2018-12-29T08:28:41.074Z,33.00
2018-12-29T08:31:07.089Z,40.50
2018-12-29T08:33:33.036Z,36.50
2018-12-29T08:35:58.973Z,34.73
2018-12-29T08:38:25.714Z,34.40
2018-12-29T08:40:52.414Z,30.83
2018-12-29T08:43:18.412Z,40.30
2018-12-29T08:45:44.404Z,28.00
2018-12-29T08:48:11.157Z,33.10
2018-12-29T08:50:37.119Z,33.87
2018-12-29T08:53:03.095Z,38.43
2018-12-29T08:55:30.054Z,29.80
2018-12-29T08:57:56.579Z,32.43
2018-12-29T09:00:22.615Z,40.90
2018-12-29T09:02:49.299Z,34.13
2018-12-29T09:05:15.322Z,32.57
2018-12-29T09:07:41.303Z,41.70
2018-12-29T09:10:07.288Z,38.70
2018-12-29T09:12:33.236Z,35.93
2018-12-29T09:14:59.962Z,42.80
2018-12-29T09:17:26.693Z,35.50
2018-12-29T09:19:52.685Z,41.87
2018-12-29T09:22:18.671Z,28.90
2018-12-29T09:24:44.655Z,36.97
2018-12-29T09:27:10.624Z,36.97
2018-12-29T09:29:36.581Z,35.27
2018-12-29T09:32:02.564Z,32.73
2018-12-29T09:34:28.499Z,33.20
2018-12-29T09:36:54.459Z,34.47
2018-12-29T09:39:20.410Z,31.63
2018-12-29T09:41:47.150Z,41.13
2018-12-29T09:44:13.873Z,28.87
2018-12-29T09:46:39.833Z,32.37
2018-12-29T09:49:05.801Z,35.37
2018-12-29T09:51:31.750Z,29.73
2018-12-29T09:53:58.491Z,29.50
2018-12-29T09:56:25.205Z,30.40
2018-12-29T09:58:51.180Z,37.00
2018-12-29T10:01:17.124Z,34.33
2018-12-29T10:03:43.090Z,30.03
2018-12-29T10:06:09.801Z,34.00
2018-12-29T10:08:35.779Z,29.20
2018-12-29T10:11:01.747Z,26.83
2018-12-29T10:13:27.789Z,26.43
2018-12-29T10:15:53.749Z,31.40
2018-12-29T10:18:19.696Z,28.43
2018-12-29T10:20:45.673Z,33.17
2018-12-29T10:23:11.619Z,22.67
2018-12-29T10:25:37.628Z,28.67
2018-12-29T10:28:04.329Z,29.60
2018-12-29T10:30:30.327Z,31.83
2018-12-29T10:32:56.271Z,32.27
2018-12-29T10:35:22.217Z,31.63
2018-12-29T10:37:48.252Z,26.53
2018-12-29T10:40:14.957Z,24.33
2018-12-29T10:42:41.679Z,27.53
2018-12-29T10:45:07.628Z,22.20
2018-12-29T10:47:34.647Z,29.67
2018-12-29T10:49:59.622Z,26.73
2018-12-29T10:52:25.613Z,31.40
2018-12-29T10:54:51.585Z,24.77
2018-12-29T10:57:17.536Z,27.47
2018-12-29T10:59:43.511Z,25.40
2018-12-29T11:02:09.448Z,22.50
2018-12-29T11:04:35.441Z,23.57
2018-12-29T11:07:02.145Z,24.17
2018-12-29T11:09:28.132Z,21.50
2018-12-29T11:11:54.107Z,23.07
2018-12-29T11:14:20.089Z,25.40
2018-12-29T11:16:46.051Z,27.07
2018-12-29T11:19:12.046Z,25.20
2018-12-29T11:21:38.008Z,24.87
2018-12-29T11:24:04.733Z,26.30
2018-12-29T11:26:30.690Z,20.63
2018-12-29T11:28:57.384Z,20.33
2018-12-29T11:31:23.360Z,24.27
2018-12-29T11:33:49.312Z,20.10
2018-12-29T11:36:15.293Z,23.57
2018-12-29T11:38:41.995Z,24.43
2018-12-29T11:41:07.981Z,22.27
2018-12-29T11:43:33.927Z,19.53
2018-12-29T11:45:59.898Z,20.53
2018-12-29T11:48:26.583Z,21.13
2018-12-29T11:50:52.543Z,24.70
2018-12-29T11:53:19.284Z,23.10
2018-12-29T11:55:45.309Z,23.50
2018-12-29T11:58:12.058Z,20.23
2018-12-29T12:00:38.058Z,19.40
2018-12-29T12:03:04.796Z,23.47
2018-12-29T12:05:30.782Z,23.53
2018-12-29T12:07:56.794Z,19.93
2018-12-29T12:10:22.795Z,24.63
2018-12-29T12:12:48.772Z,23.07
2018-12-29T12:15:14.745Z,23.90
2018-12-29T12:17:40.723Z,25.43
2018-12-29T12:20:06.744Z,20.30
2018-12-29T12:22:32.802Z,25.03
2018-12-29T12:24:58.814Z,24.97
2018-12-29T12:27:24.793Z,23.70
2018-12-29T12:29:51.689Z,24.93
2018-12-29T12:32:18.395Z,23.13
2018-12-29T12:34:45.192Z,23.80
2018-12-29T12:37:11.230Z,24.80
2018-12-29T12:39:37.269Z,22.70
2018-12-29T12:42:04.067Z,22.70
2018-12-29T12:44:30.773Z,22.97
2018-12-29T12:46:56.780Z,26.10
2018-12-29T12:49:22.756Z,21.67
2018-12-29T12:51:48.804Z,22.07
2018-12-29T12:54:14.787Z,25.77
2018-12-29T12:56:41.524Z,23.30
2018-12-29T12:59:07.540Z,31.73
2018-12-29T13:01:33.524Z,23.70
2018-12-29T13:03:59.496Z,21.37
2018-12-29T13:06:26.250Z,22.97
2018-12-29T13:08:52.975Z,23.87
2018-12-29T13:11:18.923Z,21.00
2018-12-29T13:13:44.931Z,22.57
2018-12-29T13:16:11.631Z,19.67
2018-12-29T13:18:37.655Z,21.40
2018-12-29T13:21:03.632Z,21.67
2018-12-29T13:23:29.642Z,21.57
2018-12-29T13:25:56.351Z,22.27
2018-12-29T13:28:22.385Z,22.17
2018-12-29T13:30:48.345Z,23.30
2018-12-29T13:33:14.332Z,20.90
2018-12-29T13:35:40.312Z,19.37
2018-12-29T13:38:06.314Z,23.07
2018-12-29T13:40:32.313Z,21.13
2018-12-29T13:42:58.344Z,20.80
2018-12-29T13:45:25.077Z,20.23
2018-12-29T13:47:51.799Z,20.63
2018-12-29T13:50:17.812Z,20.70
2018-12-29T13:52:43.779Z,22.77
2018-12-29T13:55:10.522Z,19.03
2018-12-29T13:57:36.508Z,21.53
2018-12-29T14:00:02.522Z,17.63
2018-12-29T14:02:28.493Z,21.70
2018-12-29T14:04:54.465Z,21.27
2018-12-29T14:07:20.464Z,17.03
2018-12-29T14:09:46.439Z,23.33
2018-12-29T14:12:13.154Z,20.60
2018-12-29T14:14:39.124Z,19.53
2018-12-29T14:17:05.142Z,20.77
2018-12-29T14:19:31.119Z,14.40
2018-12-29T14:21:57.116Z,16.07
2018-12-29T14:24:23.081Z,15.57
2018-12-29T14:26:49.087Z,21.17
2018-12-29T14:29:15.052Z,18.20
2018-12-29T14:31:41.766Z,13.47
2018-12-29T14:34:08.527Z,17.40
2018-12-29T14:36:34.515Z,12.77
2018-12-29T14:39:00.507Z,15.43
2018-12-29T14:41:26.491Z,12.77
2018-12-29T14:43:53.255Z,14.47
2018-12-29T14:46:19.248Z,12.80
2018-12-29T14:48:45.978Z,12.70
2018-12-29T14:51:11.957Z,12.67
2018-12-29T14:53:37.973Z,14.00
2018-12-29T14:56:03.953Z,14.13
2018-12-29T14:58:30.661Z,12.27
2018-12-29T15:00:56.678Z,8.50
2018-12-29T15:03:22.667Z,10.17
2018-12-29T15:05:48.696Z,11.57
2018-12-29T15:08:14.646Z,13.00
2018-12-29T15:10:40.641Z,11.00
2018-12-29T15:13:06.649Z,11.47
2018-12-29T15:15:32.664Z,11.67
2018-12-29T15:17:59.377Z,11.50
2018-12-29T15:20:25.428Z,11.97
2018-12-29T15:22:51.466Z,12.77
2018-12-29T15:25:17.506Z,14.40
2018-12-29T15:27:43.537Z,10.03
2018-12-29T15:30:09.514Z,10.73
2018-12-29T15:32:35.500Z,11.90
2018-12-29T15:35:02.269Z,11.93
2018-12-29T15:37:29.043Z,10.37
2018-12-29T15:39:55.030Z,12.87
2018-12-29T15:42:21.055Z,10.33
2018-12-29T15:44:47.032Z,10.33
2018-12-29T15:47:13.051Z,8.37
2018-12-29T15:49:39.032Z,11.27
2018-12-29T15:52:05.779Z,12.90
2018-12-29T15:54:31.809Z,7.77
2018-12-29T15:56:58.583Z,8.73
2018-12-29T15:59:24.593Z,9.43
2018-12-29T16:01:50.580Z,8.90
2018-12-29T16:04:16.586Z,7.27
2018-12-29T16:06:42.548Z,8.93
2018-12-29T16:09:08.555Z,13.00
2018-12-29T16:11:34.569Z,8.23
2018-12-29T16:14:00.576Z,11.00
2018-12-29T16:16:26.589Z,7.97
2018-12-29T16:18:58.799Z,7.97
2018-12-29T16:21:18.661Z,9.63
2018-12-29T16:23:44.706Z,7.07
2018-12-29T16:26:12.772Z,9.70
2018-12-29T16:28:37.436Z,8.73
2018-12-29T16:31:03.484Z,7.03
2018-12-29T16:33:29.465Z,8.87
2018-12-29T16:35:55.528Z,7.37
2018-12-29T16:38:22.270Z,10.20
2018-12-29T16:40:48.284Z,10.27
2018-12-29T16:43:14.281Z,7.40
2018-12-29T16:45:40.308Z,12.90
2018-12-29T16:48:06.315Z,13.20
2018-12-29T16:50:32.339Z,12.37
2018-12-29T16:52:58.337Z,8.93
2018-12-29T16:55:24.352Z,8.93
2018-12-29T16:57:51.069Z,8.40
2018-12-29T17:00:17.048Z,6.23
2018-12-29T17:02:43.043Z,12.07
2018-12-29T17:05:09.065Z,10.43
2018-12-29T17:07:35.470Z,5.87
2018-12-29T17:10:01.465Z,9.03
2018-12-29T17:12:27.536Z,11.27
2018-12-29T17:14:54.262Z,5.10
2018-12-29T17:17:21.020Z,11.57
2018-12-29T17:19:47.753Z,6.00
2018-12-29T17:22:14.528Z,8.37
2018-12-29T17:24:41.243Z,8.77
2018-12-29T17:27:07.249Z,10.07
2018-12-29T17:29:33.251Z,10.97
2018-12-29T17:31:59.211Z,7.17
2018-12-29T17:34:25.237Z,9.10
2018-12-29T17:36:51.995Z,5.80
2018-12-29T17:39:18.034Z,8.17
2018-12-29T17:41:44.768Z,9.33
2018-12-29T17:44:10.807Z,5.57
2018-12-29T17:46:36.816Z,10.07
2018-12-29T17:49:02.836Z,4.93
2018-12-29T17:51:28.871Z,6.87
2018-12-29T17:53:54.878Z,6.73
2018-12-29T17:56:20.936Z,4.07
2018-12-29T17:58:46.936Z,7.93
2018-12-29T18:01:12.977Z,5.63
2018-12-29T18:03:38.963Z,8.00
2018-12-29T18:06:04.998Z,7.67
2018-12-29T18:08:30.993Z,5.93
2018-12-29T18:10:57.761Z,8.17
2018-12-29T18:13:23.779Z,8.77
2018-12-29T18:15:50.537Z,7.03
2018-12-29T18:18:16.555Z,6.30
2018-12-29T18:20:42.591Z,6.83
2018-12-29T18:23:08.567Z,5.87
2018-12-29T18:25:35.299Z,8.63
2018-12-29T18:28:02.059Z,3.73
2018-12-29T18:30:28.067Z,3.30
2018-12-29T18:32:54.852Z,6.40
2018-12-29T18:35:20.851Z,5.30
2018-12-29T18:37:47.585Z,8.03
2018-12-29T18:40:13.636Z,7.23
2018-12-29T18:42:39.640Z,5.63
2018-12-29T18:45:05.662Z,6.53
2018-12-29T18:47:32.407Z,8.27
2018-12-29T18:49:58.420Z,4.63
2018-12-29T18:52:24.437Z,7.47
2018-12-29T18:54:51.194Z,5.47
2018-12-29T18:57:17.916Z,4.00
2018-12-29T18:59:43.926Z,4.13
2018-12-29T19:02:09.904Z,3.53
2018-12-29T19:04:35.948Z,11.80
2018-12-29T19:07:01.926Z,8.90
2018-12-29T19:09:27.910Z,9.67
2018-12-29T19:11:53.977Z,6.40
2018-12-29T19:14:20.025Z,5.80
2018-12-29T19:16:46.052Z,3.07
2018-12-29T19:19:12.010Z,4.53
2018-12-29T19:21:38.018Z,6.90
2018-12-29T19:24:04.021Z,6.40
2018-12-29T19:26:30.270Z,5.50
2018-12-29T19:28:56.515Z,6.13
2018-12-29T19:31:22.570Z,8.23
2018-12-29T19:33:49.319Z,3.17
2018-12-29T19:36:16.060Z,7.10
2018-12-29T19:38:42.092Z,12.13
2018-12-29T19:41:08.129Z,4.40
2018-12-29T19:43:34.180Z,9.63
2018-12-29T19:46:00.945Z,6.40
2018-12-29T19:48:27.798Z,6.87
2018-12-29T19:50:53.718Z,10.27
2018-12-29T19:53:19.759Z,14.20
2018-12-29T19:55:46.476Z,7.37
2018-12-29T19:58:13.246Z,3.53
2018-12-29T20:00:39.354Z,4.47
2018-12-29T20:03:05.440Z,10.40
2018-12-29T20:05:32.234Z,14.13
2018-12-29T20:07:58.235Z,12.37
2018-12-29T20:10:24.248Z,16.63
2018-12-29T20:12:50.226Z,6.87
2018-12-29T20:15:16.285Z,12.70
2018-12-29T20:17:42.292Z,11.13
2018-12-29T20:20:08.360Z,12.67
2018-12-29T20:22:34.340Z,12.43
2018-12-29T20:25:00.368Z,15.90
2018-12-29T20:27:26.358Z,15.07
2018-12-29T20:29:52.376Z,14.13
2018-12-29T20:32:19.075Z,9.47
2018-12-29T20:34:45.089Z,11.57
2018-12-29T20:37:11.091Z,16.13
2018-12-29T20:39:37.077Z,10.63
2018-12-29T20:42:03.813Z,5.63
2018-12-29T20:44:29.802Z,13.13
2018-12-29T20:46:57.072Z,13.77
2018-12-29T20:49:22.621Z,11.33
2018-12-29T20:51:48.632Z,13.60
2018-12-29T20:54:15.351Z,8.87
2018-12-29T20:56:42.115Z,7.60
2018-12-29T20:59:08.097Z,12.53
2018-12-29T21:01:34.091Z,7.43
2018-12-29T21:04:00.904Z,10.37
2018-12-29T21:06:26.882Z,5.83
2018-12-29T21:08:52.908Z,6.27
2018-12-29T21:11:18.881Z,9.27
2018-12-29T21:13:44.895Z,4.90
2018-12-29T21:16:11.613Z,6.13
2018-12-29T21:18:37.623Z,13.47
2018-12-29T21:21:03.653Z,12.37
2018-12-29T21:23:30.423Z,16.73
2018-12-29T21:25:57.152Z,9.47
2018-12-29T21:28:23.115Z,3.83
2018-12-29T21:30:49.130Z,17.40
2018-12-29T21:33:15.132Z,10.20
2018-12-29T21:35:41.160Z,16.33
2018-12-29T21:38:07.184Z,7.73
2018-12-29T21:40:33.951Z,10.37
2018-12-29T21:42:59.918Z,7.90
2018-12-29T21:45:32.858Z,8.27
2018-12-29T21:47:58.863Z,7.67
2018-12-29T21:50:25.957Z,10.70
2018-12-29T21:52:51.622Z,7.77
2018-12-29T21:55:17.591Z,13.13
2018-12-29T21:57:44.340Z,10.90
2018-12-29T22:00:10.333Z,14.53
2018-12-29T22:02:36.350Z,9.77
2018-12-29T22:05:02.330Z,15.43
2018-12-29T22:07:29.097Z,9.67
2018-12-29T22:09:55.088Z,16.00
2018-12-29T22:12:21.096Z,11.57
2018-12-29T22:14:47.080Z,13.67
2018-12-29T22:17:13.056Z,8.57
2018-12-29T22:19:39.087Z,14.17
2018-12-29T22:22:05.816Z,14.10
2018-12-29T22:24:31.818Z,13.23
2018-12-29T22:26:57.820Z,6.80
2018-12-29T22:29:23.855Z,6.70
2018-12-29T22:31:49.841Z,5.40
2018-12-29T22:34:15.864Z,10.60
2018-12-29T22:36:41.837Z,9.83
2018-12-29T22:39:07.902Z,9.47
2018-12-29T22:41:34.628Z,12.50
2018-12-29T22:44:01.359Z,8.90
2018-12-29T22:46:27.364Z,9.20
2018-12-29T22:48:53.402Z,8.03
2018-12-29T22:51:20.298Z,13.60
2018-12-29T22:53:46.327Z,9.83
2018-12-29T22:56:12.353Z,7.63
2018-12-29T22:58:38.344Z,8.57
2018-12-29T23:01:05.115Z,8.90
2018-12-29T23:03:31.132Z,14.07
2018-12-29T23:05:57.868Z,7.50
2018-12-29T23:08:23.851Z,13.80
2018-12-29T23:10:49.831Z,9.27
2018-12-29T23:13:16.615Z,8.83
2018-12-29T23:15:42.609Z,7.60
2018-12-29T23:18:08.663Z,9.80
2018-12-29T23:20:34.683Z,4.67
2018-12-29T23:23:00.712Z,8.47
2018-12-29T23:25:26.688Z,8.97
2018-12-29T23:27:52.715Z,10.03
2018-12-29T23:30:18.720Z,9.90
2018-12-29T23:32:44.735Z,4.63
2018-12-29T23:35:10.763Z,12.83
2018-12-29T23:37:37.473Z,9.10
2018-12-29T23:40:03.531Z,10.27
2018-12-29T23:42:29.518Z,8.00
2018-12-29T23:44:55.540Z,10.43
2018-12-29T23:47:21.545Z,10.53
2018-12-29T23:49:48.389Z,14.03
2018-12-29T23:52:14.711Z,8.37
2018-12-29T23:54:40.414Z,12.17
2018-12-29T23:57:06.430Z,9.00
2018-12-29T23:59:32.437Z,9.43
